• Join FlightAware (Why Join?)
  • Login
  • US Flag 
10:31AM EST


 

Airport Tracker/Info


-or-


 

Live Flight TrackerFlight Track Log ✈ PDT4348 ✈ 19-Aug-2014 ✈ KCRW - KDCA

Flight Track Log - Related Links

Times and Time Zones

All times are in EDT time to prevent confusion due to time zone crossing. See the PDT4348 flight status page for this flight to view local times or setup timezone preferences in your user account.

Time Position Orientation Groundspeed Altitude Reporting Facility
EDT Latitude Longitude Course Direction KTS MPH feet Rate Location/Type
06:29AM 38.3333 -81.6081 82° East 131 151 3,000  Level Indianapolis Center
06:30AM 38.3025 -81.5828 147° Southeast 155 178 4,400 1,328 Climbing Indianapolis Center
06:31AM 38.3796 -81.3334 82° East  Level FlightAware Approximate
06:31AM 38.3147 -81.5278 74° East 161 185 5,700  Level Indianapolis Center
06:32AM 38.3833 -81.2476 90° East  Level FlightAware Approximate
06:32AM 38.3367 -81.4747 62° Northeast 166 191 7,100  Level Indianapolis Center
06:33AM 38.3913 -81.1621 82° East  Level FlightAware Approximate
06:33AM 38.3583 -81.4203 63° Northeast 169 194 8,500  Level Indianapolis Center
06:34AM 38.4003 -81.0818 82° East  Level FlightAware Approximate
06:34AM 38.3778 -81.3636 66° East 172 198 9,900  Level Indianapolis Center
06:35AM 38.3981 -81.2883 71° East 184 212 10,900 885 Climbing Indianapolis Center
06:36AM 38.4039 -81.2142 84° East 205 236 11,700 787 Climbing Indianapolis Center
06:37AM 38.4083 -81.1356 86° East 216 249 12,500 787 Climbing Indianapolis Center
06:38AM 38.4142 -81.0583 84° East 218 251 13,300 787 Climbing Indianapolis Center
06:39AM 38.4217 -80.9817 83° East 217 250 14,100 787 Climbing Indianapolis Center
06:40AM 38.4292 -80.9053 83° East 218 251 14,900 787 Climbing Indianapolis Center
06:41AM 38.4367 -80.8281 83° East 218 251 15,700 787 Climbing Indianapolis Center
06:42AM 38.4414 -80.7489 86° East 220 253 16,500 590 Climbing Indianapolis Center
06:43AM 38.4481 -80.6706 84° East 220 253 16,900 197 Climbing Indianapolis Center
06:44AM 38.4508 -80.5836 88° East 243 280 16,900  Level Indianapolis Center
06:45AM 38.4594 -80.4903 83° East 257 296 16,900  Level Indianapolis Center
06:46AM 38.4733 -80.3961 79° East 261 300 16,900  Level Indianapolis Center
06:47AM 38.4808 -80.3042 84° East 263 303 16,900  Level Indianapolis Center
06:48AM 38.4869 -80.1936 86° East 263 303 16,900  Level Indianapolis Center
06:49AM 38.4917 -80.1033 86° East 261 300 16,900  Level Indianapolis Center
06:50AM 38.4975 -80.0106 85° East 261 300 16,900  Level Indianapolis Center
06:51AM 38.5017 -79.9144 87° East 264 304 16,900  Level Indianapolis Center
06:52AM 38.5125 -79.8181 82° East 269 310 16,900  Level Indianapolis Center
06:53AM 38.5197 -79.7214 85° East 271 312 16,900  Level Indianapolis Center
06:55AM 38.5261 -79.6236 85° East 273 314 16,900  Level Indianapolis Center
06:56AM 38.5356 -79.5250 83° East 276 318 16,900  Level Indianapolis Center
06:57AM 38.5425 -79.4278 85° East 277 319 16,900  Level Indianapolis Center
06:58AM 38.5464 -79.3289 87° East 277 319 16,900 -221 Level Indianapolis Center
06:59AM 38.5564 -79.1972 84° East 278 320 16,400 -529 Descending Washington Center
07:00AM 38.5631 -79.0911 85° East 295 339 15,700 -689 Descending Washington Center
07:01AM 38.5750 -78.9850 82° East 298 343 15,000 -744 Descending Washington Center
07:02AM 38.5839 -78.8778 84° East 299 344 14,200 -878 Descending Washington Center
07:03AM 38.5897 -78.7725 86° East 301 346 13,200 -968 Descending Washington Center
07:04AM 38.5900 -78.6678 90° East 299 344 12,200 -960 Descending Washington Center
07:05AM 38.5919 -78.5642 89° East 293 337 11,200 -1,104 Descending Washington Center
07:06AM 38.5889 -78.4422 92° East 290 334 9,900 -1,082 Descending Washington Center
07:07AM 38.5925 -78.3431 87° East 285 328 9,000 -443 Descending Washington Center
07:08AM 38.5947 -78.2531 88° East 264 304 9,000  Level Washington Center
07:09AM 38.5725 -78.1708 109° East 249 287 9,000 -96 Level Washington Center
07:10AM 38.5597 -78.0861 101° East 246 283 8,800 -581 Descending Washington Center
07:11AM 38.5431 -77.9983 104° East 252 290 7,800 -992 Descending Washington Center
07:12AM 38.5278 -77.9058 102° East 262 302 6,800 -1,056 Descending Washington Center
07:13AM 38.4978 -77.8019 110° East 263 303 5,600 -864 Descending Washington Center
07:14AM 38.4719 -77.7192 112° Southeast 256 295 5,000 -295 Descending Washington Center
07:15AM 38.4489 -77.6406 111° Southeast 243 280 5,000  Level Washington Center
07:16AM 38.4547 -77.5606 85° East 234 269 5,000  Level Washington Center
07:17AM 38.4642 -77.4806 81° East 232 267 5,000  Level Washington Center
07:18AM 38.4728 -77.3992 82° East 232 267 5,000  Level Washington Center
07:19AM 38.4844 -77.3031 81° East 232 267 5,000  Level Washington Center
07:20AM 38.4947 -77.2236 81° East 231 266 5,000 -98 Level Washington Center
07:21AM 38.5036 -77.1433 82° East 231 266 4,800 -581 Descending Washington Center
07:22AM 38.5217 -77.0628 74° East 241 277 3,800 -871 Descending Washington Center
07:24AM 38.5633 -77.0208 38° Northeast 201 231 3,000 -435 Descending Washington Center
07:25AM 38.6022 -76.9872 34° Northeast 174 200 2,900 -488 Descending Washington Center
07:26AM 38.6606 -76.9833 North 175 201 2,000 -661 Descending Washington Center
07:26AM 38.7167 -76.9833 360° North 200 230 1,600 -261 Descending Potomac TRACON
07:27AM 38.7667 -77.0000 345° North 186 214 1,500 -353 Descending Potomac TRACON
07:28AM 38.8000 -77.0000 360° North 140 161 900 -610 Descending Potomac TRACON